Annadale, South Africa
Current Conditions -  °F | °C
As of 3:00 AM on Monday 24 Nov 2014 (Local Time) from FAPP Reporting Station
NA  
Wind Chill: 59°   Ceiling: NA
Heat Index: 59°   Visibility: NA
Dew Point: 50°   Wind: 5mph
Humidity: 72%   Direction: 200°SSW
Pressure: 30.09"   Gusts: NA
Location:  23.88°S, 29.45°E
Report Text: FAPP 240100Z AUTO 20004KT //// // ////// 15/10 Q1019
Loading
Personal Weather Stations






























Interactive Weather Map New forecast layout! Learn more

10-Day Weather Forecast

Advertisements
Track Severe Weather on mobile